Fenton, New York
Current Conditions -  °F | °C
As of 2:53 PM on Thursday 18 Dec 2014 (Local Time) from KBGM Reporting Station
Overcast Overcast  
Wind Chill: 18°   Ceiling: 600
Heat Index: 29°   Visibility: 10mi
Dew Point: 26°   Wind: 15mph
Humidity: 89%   Direction: 290°WNW
Pressure: 29.94"   Gusts: 20mph
Location:  42.2035°N, 75.7599°W
Report Text: KBGM 181953Z 29013G17KT 10SM OVC006 M02/M03 A2994 RMK AO2 SLP157 T10171033
Loading
Personal Weather Stations






























Interactive Weather Map New forecast layout! Learn more

10-Day Weather Forecast

Advertisements
Track Severe Weather on mobile